Main page
METAR-TAF:

METAR-TAF

Airports :

Can Tho International Airport

Cần Thơ, Vietnam

latitude: 10-05-07N, longitude: 105-42-43E, elevation: 3 m

Current weather observation

The report was made 18 minutes ago, at 19:00 UTC
Wind 3 kt from the East
Temperature 25°C
Humidity 83%
Pressure 1012 hPa
Visibility: 8000 m

METAR: VVCT 171900Z 09003KT 8000 NSC 25/22 Q1012 NOSIG

Time: 02:18 (19:18 UTC)

Forecast

The report was made 2 hours and 18 minutes ago, at 17:00 UTC
Forecast valid from 17 at 18 UTC to 18 at 18 UTC
Wind 3 kt from variable directions
Visibility 10 km or more
Scattered clouds at a height of 1500 ft
Scattered clouds at a height of 5000 ft
Becoming
from 17 at 21 UTC to 17 at 22 UTC
Visibility: 5000 m
mist
Becoming
from 18 at 00 UTC to 18 at 01 UTC
Wind 10 kt from the East
Visibility 10 km or more

TAF: VVCT 171700Z 1718/1818 VRB03KT 9999 SCT015 SCT050 BECMG 1721/1722 5000 BR BECMG 1800/1801 10010KT 9999 NSW

Weather observations and forecasts of more than 4000 airports (METAR and TAF reports).

The available stations are represented by yellow and red dots on the map.

Hover mouse over dot to see the name of the station.

Then click to see weather observations and forecasts.

To change the map : click on the green buttons with a black cross to zoom in, on the green button with a dash to zoom out, or on the green arrows for adjacent maps.


METAR-TAF: